sensor_id;sensor_type;location;lat;lon;timestamp;P1;durP1;ratioP1;P2;durP2;ratioP2
4409;SDS011;2218;51.408;7.208;2024-01-15T00:00:30;1.40;;;1.30;;
4409;SDS011;2218;51.408;7.208;2024-01-15T00:02:57;1.60;;;1.50;;
4409;SDS011;2218;51.408;7.208;2024-01-15T00:05:24;1.20;;;1.20;;
4409;SDS011;2218;51.408;7.208;2024-01-15T00:07:51;1.60;;;1.50;;
4409;SDS011;2218;51.408;7.208;2024-01-15T00:10:17;1.93;;;1.83;;
4409;SDS011;2218;51.408;7.208;2024-01-15T00:12:44;1.60;;;1.50;;
4409;SDS011;2218;51.408;7.208;2024-01-15T00:15:12;1.60;;;1.50;;
4409;SDS011;2218;51.408;7.208;2024-01-15T00:17:40;1.63;;;1.53;;
4409;SDS011;2218;51.408;7.208;2024-01-15T00:20:07;1.50;;;1.40;;
4409;SDS011;2218;51.408;7.208;2024-01-15T00:22:35;1.50;;;1.40;;
4409;SDS011;2218;51.408;7.208;2024-01-15T00:25:02;1.73;;;1.63;;
4409;SDS011;2218;51.408;7.208;2024-01-15T00:27:30;1.53;;;1.43;;
4409;SDS011;2218;51.408;7.208;2024-01-15T00:29:56;1.53;;;1.43;;
4409;SDS011;2218;51.408;7.208;2024-01-15T00:32:23;1.70;;;1.60;;
4409;SDS011;2218;51.408;7.208;2024-01-15T00:34:52;1.40;;;1.30;;
4409;SDS011;2218;51.408;7.208;2024-01-15T00:37:19;1.60;;;1.50;;
4409;SDS011;2218;51.408;7.208;2024-01-15T00:39:45;1.57;;;1.47;;
4409;SDS011;2218;51.408;7.208;2024-01-15T00:42:13;1.70;;;1.60;;
4409;SDS011;2218;51.408;7.208;2024-01-15T00:44:40;1.50;;;1.40;;
4409;SDS011;2218;51.408;7.208;2024-01-15T00:47:08;1.60;;;1.50;;
4409;SDS011;2218;51.408;7.208;2024-01-15T00:49:35;1.67;;;1.57;;
4409;SDS011;2218;51.408;7.208;2024-01-15T00:52:03;1.43;;;1.33;;
4409;SDS011;2218;51.408;7.208;2024-01-15T00:54:31;1.70;;;1.60;;
4409;SDS011;2218;51.408;7.208;2024-01-15T00:56:57;1.33;;;1.23;;
4409;SDS011;2218;51.408;7.208;2024-01-15T00:59:24;1.60;;;1.50;;
4409;SDS011;2218;51.408;7.208;2024-01-15T01:01:52;1.70;;;1.60;;
4409;SDS011;2218;51.408;7.208;2024-01-15T01:04:19;1.93;;;1.60;;
4409;SDS011;2218;51.408;7.208;2024-01-15T01:06:46;1.60;;;1.50;;
4409;SDS011;2218;51.408;7.208;2024-01-15T01:09:14;1.57;;;1.47;;
4409;SDS011;2218;51.408;7.208;2024-01-15T01:11:41;1.53;;;1.43;;
4409;SDS011;2218;51.408;7.208;2024-01-15T01:14:08;1.97;;;1.87;;
4409;SDS011;2218;51.408;7.208;2024-01-15T01:16:35;1.60;;;1.50;;
4409;SDS011;2218;51.408;7.208;2024-01-15T01:19:04;1.80;;;1.70;;
4409;SDS011;2218;51.408;7.208;2024-01-15T01:21:31;1.60;;;1.50;;
4409;SDS011;2218;51.408;7.208;2024-01-15T01:23:59;1.70;;;1.60;;
4409;SDS011;2218;51.408;7.208;2024-01-15T01:26:27;1.50;;;1.40;;
4409;SDS011;2218;51.408;7.208;2024-01-15T01:28:54;1.63;;;1.53;;
4409;SDS011;2218;51.408;7.208;2024-01-15T01:31:22;1.83;;;1.73;;
4409;SDS011;2218;51.408;7.208;2024-01-15T01:33:50;1.50;;;1.40;;
4409;SDS011;2218;51.408;7.208;2024-01-15T01:36:17;1.87;;;1.77;;
4409;SDS011;2218;51.408;7.208;2024-01-15T01:38:44;1.77;;;1.67;;
4409;SDS011;2218;51.408;7.208;2024-01-15T01:41:11;1.70;;;1.60;;
4409;SDS011;2218;51.408;7.208;2024-01-15T01:43:40;1.50;;;1.40;;
4409;SDS011;2218;51.408;7.208;2024-01-15T01:46:05;1.50;;;1.40;;
4409;SDS011;2218;51.408;7.208;2024-01-15T01:48:33;1.80;;;1.70;;
4409;SDS011;2218;51.408;7.208;2024-01-15T01:51:02;1.80;;;1.70;;
4409;SDS011;2218;51.408;7.208;2024-01-15T01:53:30;2.10;;;2.00;;
4409;SDS011;2218;51.408;7.208;2024-01-15T01:56:01;1.70;;;1.60;;
4409;SDS011;2218;51.408;7.208;2024-01-15T01:58:30;1.70;;;1.60;;
4409;SDS011;2218;51.408;7.208;2024-01-15T02:01:00;2.00;;;1.90;;
4409;SDS011;2218;51.408;7.208;2024-01-15T02:03:27;1.93;;;1.83;;
4409;SDS011;2218;51.408;7.208;2024-01-15T02:05:56;1.77;;;1.67;;
4409;SDS011;2218;51.408;7.208;2024-01-15T02:08:24;1.90;;;1.80;;
4409;SDS011;2218;51.408;7.208;2024-01-15T02:10:51;1.90;;;1.80;;
4409;SDS011;2218;51.408;7.208;2024-01-15T02:13:19;1.80;;;1.70;;
4409;SDS011;2218;51.408;7.208;2024-01-15T02:15:47;1.80;;;1.70;;
4409;SDS011;2218;51.408;7.208;2024-01-15T02:18:15;1.90;;;1.80;;
4409;SDS011;2218;51.408;7.208;2024-01-15T02:20:42;1.67;;;1.57;;
4409;SDS011;2218;51.408;7.208;2024-01-15T02:23:12;1.50;;;1.40;;
4409;SDS011;2218;51.408;7.208;2024-01-15T02:25:41;1.50;;;1.40;;
4409;SDS011;2218;51.408;7.208;2024-01-15T02:28:12;1.57;;;1.47;;
4409;SDS011;2218;51.408;7.208;2024-01-15T02:30:41;1.80;;;1.70;;
4409;SDS011;2218;51.408;7.208;2024-01-15T02:33:10;1.80;;;1.70;;
4409;SDS011;2218;51.408;7.208;2024-01-15T02:35:38;1.80;;;1.70;;
4409;SDS011;2218;51.408;7.208;2024-01-15T02:38:06;2.03;;;1.93;;
4409;SDS011;2218;51.408;7.208;2024-01-15T02:40:36;1.90;;;1.80;;
4409;SDS011;2218;51.408;7.208;2024-01-15T02:43:05;1.60;;;1.50;;
4409;SDS011;2218;51.408;7.208;2024-01-15T02:45:32;1.70;;;1.60;;
4409;SDS011;2218;51.408;7.208;2024-01-15T02:47:59;1.97;;;1.87;;
4409;SDS011;2218;51.408;7.208;2024-01-15T02:50:26;1.60;;;1.50;;
4409;SDS011;2218;51.408;7.208;2024-01-15T02:52:53;2.13;;;2.00;;
4409;SDS011;2218;51.408;7.208;2024-01-15T02:55:20;1.70;;;1.60;;
4409;SDS011;2218;51.408;7.208;2024-01-15T02:57:48;2.10;;;2.00;;
4409;SDS011;2218;51.408;7.208;2024-01-15T03:00:15;1.83;;;1.73;;
4409;SDS011;2218;51.408;7.208;2024-01-15T03:02:44;1.80;;;1.70;;
4409;SDS011;2218;51.408;7.208;2024-01-15T03:05:11;1.77;;;1.67;;
4409;SDS011;2218;51.408;7.208;2024-01-15T03:07:38;1.90;;;1.80;;
4409;SDS011;2218;51.408;7.208;2024-01-15T03:10:05;1.70;;;1.60;;
4409;SDS011;2218;51.408;7.208;2024-01-15T03:12:33;1.50;;;1.40;;
4409;SDS011;2218;51.408;7.208;2024-01-15T03:15:02;1.50;;;1.40;;
4409;SDS011;2218;51.408;7.208;2024-01-15T03:17:30;1.70;;;1.60;;
4409;SDS011;2218;51.408;7.208;2024-01-15T03:19:56;1.63;;;1.53;;
4409;SDS011;2218;51.408;7.208;2024-01-15T03:22:24;1.20;;;1.20;;
4409;SDS011;2218;51.408;7.208;2024-01-15T03:24:50;1.50;;;1.40;;
4409;SDS011;2218;51.408;7.208;2024-01-15T03:27:19;1.40;;;1.30;;
4409;SDS011;2218;51.408;7.208;2024-01-15T03:29:46;1.83;;;1.73;;
4409;SDS011;2218;51.408;7.208;2024-01-15T03:32:15;1.43;;;1.33;;
4409;SDS011;2218;51.408;7.208;2024-01-15T03:34:42;1.70;;;1.60;;
4409;SDS011;2218;51.408;7.208;2024-01-15T03:37:09;1.80;;;1.70;;
4409;SDS011;2218;51.408;7.208;2024-01-15T03:39:37;1.80;;;1.70;;
4409;SDS011;2218;51.408;7.208;2024-01-15T03:42:04;1.80;;;1.70;;
4409;SDS011;2218;51.408;7.208;2024-01-15T03:44:32;1.90;;;1.80;;
4409;SDS011;2218;51.408;7.208;2024-01-15T03:46:59;1.30;;;1.20;;
4409;SDS011;2218;51.408;7.208;2024-01-15T03:49:27;1.50;;;1.40;;
4409;SDS011;2218;51.408;7.208;2024-01-15T03:51:54;2.07;;;1.97;;
4409;SDS011;2218;51.408;7.208;2024-01-15T03:54:21;1.70;;;1.60;;
4409;SDS011;2218;51.408;7.208;2024-01-15T03:56:48;1.50;;;1.40;;
4409;SDS011;2218;51.408;7.208;2024-01-15T03:59:15;1.60;;;1.50;;
4409;SDS011;2218;51.408;7.208;2024-01-15T04:01:47;1.50;;;1.40;;
4409;SDS011;2218;51.408;7.208;2024-01-15T04:04:16;1.77;;;1.67;;
4409;SDS011;2218;51.408;7.208;2024-01-15T04:06:44;1.40;;;1.30;;
4409;SDS011;2218;51.408;7.208;2024-01-15T04:09:11;1.60;;;1.50;;
4409;SDS011;2218;51.408;7.208;2024-01-15T04:11:38;1.43;;;1.33;;
4409;SDS011;2218;51.408;7.208;2024-01-15T04:14:05;1.50;;;1.40;;
4409;SDS011;2218;51.408;7.208;2024-01-15T04:16:33;1.60;;;1.50;;
4409;SDS011;2218;51.408;7.208;2024-01-15T04:19:00;1.50;;;1.40;;
4409;SDS011;2218;51.408;7.208;2024-01-15T04:21:27;1.40;;;1.30;;
4409;SDS011;2218;51.408;7.208;2024-01-15T04:23:56;1.63;;;1.53;;
4409;SDS011;2218;51.408;7.208;2024-01-15T04:26:22;1.43;;;1.33;;
4409;SDS011;2218;51.408;7.208;2024-01-15T04:28:50;1.50;;;1.40;;
4409;SDS011;2218;51.408;7.208;2024-01-15T04:31:20;1.30;;;1.20;;
4409;SDS011;2218;51.408;7.208;2024-01-15T04:33:48;1.00;;;1.00;;
4409;SDS011;2218;51.408;7.208;2024-01-15T04:36:15;1.17;;;1.07;;
4409;SDS011;2218;51.408;7.208;2024-01-15T04:38:42;1.30;;;1.20;;
4409;SDS011;2218;51.408;7.208;2024-01-15T04:41:12;1.50;;;1.40;;
4409;SDS011;2218;51.408;7.208;2024-01-15T04:43:40;1.40;;;1.30;;
4409;SDS011;2218;51.408;7.208;2024-01-15T04:46:07;1.70;;;1.60;;
4409;SDS011;2218;51.408;7.208;2024-01-15T04:48:35;1.57;;;1.47;;
4409;SDS011;2218;51.408;7.208;2024-01-15T04:51:03;1.57;;;1.47;;
4409;SDS011;2218;51.408;7.208;2024-01-15T04:53:32;1.40;;;1.30;;
4409;SDS011;2218;51.408;7.208;2024-01-15T04:55:59;1.40;;;1.30;;
4409;SDS011;2218;51.408;7.208;2024-01-15T04:58:28;1.00;;;1.00;;
4409;SDS011;2218;51.408;7.208;2024-01-15T05:00:55;1.17;;;1.07;;
4409;SDS011;2218;51.408;7.208;2024-01-15T05:03:22;1.40;;;1.30;;
4409;SDS011;2218;51.408;7.208;2024-01-15T05:05:49;1.17;;;1.10;;
4409;SDS011;2218;51.408;7.208;2024-01-15T05:08:16;1.23;;;1.13;;
4409;SDS011;2218;51.408;7.208;2024-01-15T05:10:43;1.30;;;1.20;;
4409;SDS011;2218;51.408;7.208;2024-01-15T05:13:11;1.20;;;1.13;;
4409;SDS011;2218;51.408;7.208;2024-01-15T05:15:39;1.20;;;1.10;;
4409;SDS011;2218;51.408;7.208;2024-01-15T05:18:06;0.90;;;0.90;;
4409;SDS011;2218;51.408;7.208;2024-01-15T05:20:33;1.33;;;1.23;;
4409;SDS011;2218;51.408;7.208;2024-01-15T05:23:00;1.10;;;1.10;;
4409;SDS011;2218;51.408;7.208;2024-01-15T05:25:27;1.27;;;1.20;;
4409;SDS011;2218;51.408;7.208;2024-01-15T05:27:54;1.20;;;1.10;;
4409;SDS011;2218;51.408;7.208;2024-01-15T05:30:21;1.20;;;1.10;;
4409;SDS011;2218;51.408;7.208;2024-01-15T05:32:50;1.17;;;1.10;;
4409;SDS011;2218;51.408;7.208;2024-01-15T05:35:17;1.47;;;1.07;;
4409;SDS011;2218;51.408;7.208;2024-01-15T05:37:45;0.90;;;0.90;;
4409;SDS011;2218;51.408;7.208;2024-01-15T05:40:12;1.00;;;1.00;;
4409;SDS011;2218;51.408;7.208;2024-01-15T05:42:40;1.30;;;1.20;;
4409;SDS011;2218;51.408;7.208;2024-01-15T05:45:08;1.10;;;1.10;;
4409;SDS011;2218;51.408;7.208;2024-01-15T05:47:35;1.13;;;1.03;;
4409;SDS011;2218;51.408;7.208;2024-01-15T05:50:04;0.97;;;0.97;;
4409;SDS011;2218;51.408;7.208;2024-01-15T05:52:31;1.17;;;1.07;;
4409;SDS011;2218;51.408;7.208;2024-01-15T05:54:59;1.10;;;1.03;;
4409;SDS011;2218;51.408;7.208;2024-01-15T05:57:26;0.90;;;0.90;;
4409;SDS011;2218;51.408;7.208;2024-01-15T05:59:53;1.07;;;0.97;;
4409;SDS011;2218;51.408;7.208;2024-01-15T06:02:20;1.20;;;1.10;;
4409;SDS011;2218;51.408;7.208;2024-01-15T06:04:47;0.90;;;0.90;;
4409;SDS011;2218;51.408;7.208;2024-01-15T06:07:16;1.20;;;1.10;;
4409;SDS011;2218;51.408;7.208;2024-01-15T06:09:43;1.40;;;1.30;;
4409;SDS011;2218;51.408;7.208;2024-01-15T06:12:11;0.97;;;0.97;;
4409;SDS011;2218;51.408;7.208;2024-01-15T06:14:38;1.10;;;1.00;;
4409;SDS011;2218;51.408;7.208;2024-01-15T06:17:06;1.40;;;1.30;;
4409;SDS011;2218;51.408;7.208;2024-01-15T06:19:33;1.10;;;1.00;;
4409;SDS011;2218;51.408;7.208;2024-01-15T06:22:00;1.37;;;1.27;;
4409;SDS011;2218;51.408;7.208;2024-01-15T06:24:28;1.07;;;0.97;;
4409;SDS011;2218;51.408;7.208;2024-01-15T06:26:55;0.90;;;0.90;;
4409;SDS011;2218;51.408;7.208;2024-01-15T06:29:25;1.13;;;0.97;;
4409;SDS011;2218;51.408;7.208;2024-01-15T06:31:52;0.80;;;0.80;;
4409;SDS011;2218;51.408;7.208;2024-01-15T06:34:19;1.13;;;1.03;;
4409;SDS011;2218;51.408;7.208;2024-01-15T06:36:46;1.40;;;1.30;;
4409;SDS011;2218;51.408;7.208;2024-01-15T06:39:13;4.10;;;1.40;;
4409;SDS011;2218;51.408;7.208;2024-01-15T06:41:42;14.20;;;1.60;;
4409;SDS011;2218;51.408;7.208;2024-01-15T06:44:10;1.10;;;1.00;;
4409;SDS011;2218;51.408;7.208;2024-01-15T06:46:41;5.13;;;1.00;;
4409;SDS011;2218;51.408;7.208;2024-01-15T06:49:09;3.33;;;0.90;;
4409;SDS011;2218;51.408;7.208;2024-01-15T06:51:36;2.40;;;0.90;;
4409;SDS011;2218;51.408;7.208;2024-01-15T06:54:03;0.80;;;0.77;;
4409;SDS011;2218;51.408;7.208;2024-01-15T06:56:31;6.53;;;0.90;;
4409;SDS011;2218;51.408;7.208;2024-01-15T06:59:00;2.33;;;1.00;;
4409;SDS011;2218;51.408;7.208;2024-01-15T07:01:27;2.10;;;1.13;;
4409;SDS011;2218;51.408;7.208;2024-01-15T07:03:55;0.90;;;0.90;;
4409;SDS011;2218;51.408;7.208;2024-01-15T07:06:22;1.77;;;1.00;;
4409;SDS011;2218;51.408;7.208;2024-01-15T07:08:49;1.30;;;0.90;;
4409;SDS011;2218;51.408;7.208;2024-01-15T07:11:16;1.70;;;0.97;;
4409;SDS011;2218;51.408;7.208;2024-01-15T07:13:43;1.20;;;0.93;;
4409;SDS011;2218;51.408;7.208;2024-01-15T07:16:12;0.90;;;0.90;;
4409;SDS011;2218;51.408;7.208;2024-01-15T07:18:38;1.53;;;1.20;;
4409;SDS011;2218;51.408;7.208;2024-01-15T07:21:07;2.70;;;0.97;;
4409;SDS011;2218;51.408;7.208;2024-01-15T07:23:34;0.97;;;0.97;;
4409;SDS011;2218;51.408;7.208;2024-01-15T07:26:01;0.83;;;0.83;;
4409;SDS011;2218;51.408;7.208;2024-01-15T07:28:30;0.93;;;0.93;;
4409;SDS011;2218;51.408;7.208;2024-01-15T07:30:57;2.33;;;1.00;;
4409;SDS011;2218;51.408;7.208;2024-01-15T07:33:26;1.33;;;0.80;;
4409;SDS011;2218;51.408;7.208;2024-01-15T07:35:53;2.20;;;0.80;;
4409;SDS011;2218;51.408;7.208;2024-01-15T07:38:20;1.10;;;1.00;;
4409;SDS011;2218;51.408;7.208;2024-01-15T07:40:47;1.20;;;1.10;;
4409;SDS011;2218;51.408;7.208;2024-01-15T07:43:14;3.77;;;1.23;;
4409;SDS011;2218;51.408;7.208;2024-01-15T07:45:42;0.97;;;0.87;;
4409;SDS011;2218;51.408;7.208;2024-01-15T07:48:10;0.90;;;0.90;;
4409;SDS011;2218;51.408;7.208;2024-01-15T07:50:39;1.10;;;0.80;;
4409;SDS011;2218;51.408;7.208;2024-01-15T07:53:06;0.90;;;0.87;;
4409;SDS011;2218;51.408;7.208;2024-01-15T07:55:33;5.03;;;1.30;;
4409;SDS011;2218;51.408;7.208;2024-01-15T07:58:02;0.70;;;0.60;;
4409;SDS011;2218;51.408;7.208;2024-01-15T08:00:29;1.07;;;0.67;;
4409;SDS011;2218;51.408;7.208;2024-01-15T08:02:56;2.07;;;0.77;;
4409;SDS011;2218;51.408;7.208;2024-01-15T08:05:23;1.70;;;0.97;;
4409;SDS011;2218;51.408;7.208;2024-01-15T08:07:51;0.80;;;0.53;;
4409;SDS011;2218;51.408;7.208;2024-01-15T08:10:19;0.70;;;0.60;;
4409;SDS011;2218;51.408;7.208;2024-01-15T08:12:46;1.00;;;0.80;;
4409;SDS011;2218;51.408;7.208;2024-01-15T08:15:14;2.70;;;0.87;;
4409;SDS011;2218;51.408;7.208;2024-01-15T08:17:43;1.33;;;0.80;;
4409;SDS011;2218;51.408;7.208;2024-01-15T08:20:11;2.30;;;0.70;;
4409;SDS011;2218;51.408;7.208;2024-01-15T08:22:41;2.40;;;0.70;;
4409;SDS011;2218;51.408;7.208;2024-01-15T08:25:14;1.73;;;0.80;;
4409;SDS011;2218;51.408;7.208;2024-01-15T08:27:41;6.47;;;0.57;;
4409;SDS011;2218;51.408;7.208;2024-01-15T08:30:09;1.07;;;0.70;;
4409;SDS011;2218;51.408;7.208;2024-01-15T08:32:37;1.27;;;0.80;;
4409;SDS011;2218;51.408;7.208;2024-01-15T08:35:07;1.77;;;0.80;;
4409;SDS011;2218;51.408;7.208;2024-01-15T08:37:34;4.87;;;0.60;;
4409;SDS011;2218;51.408;7.208;2024-01-15T08:40:01;0.70;;;0.60;;
4409;SDS011;2218;51.408;7.208;2024-01-15T08:42:30;1.80;;;0.60;;
4409;SDS011;2218;51.408;7.208;2024-01-15T08:44:57;0.80;;;0.70;;
4409;SDS011;2218;51.408;7.208;2024-01-15T08:47:24;0.80;;;0.60;;
4409;SDS011;2218;51.408;7.208;2024-01-15T08:49:51;0.80;;;0.70;;
4409;SDS011;2218;51.408;7.208;2024-01-15T08:52:18;1.10;;;0.70;;
4409;SDS011;2218;51.408;7.208;2024-01-15T08:54:45;0.80;;;0.70;;
4409;SDS011;2218;51.408;7.208;2024-01-15T08:57:13;0.70;;;0.60;;
4409;SDS011;2218;51.408;7.208;2024-01-15T08:59:41;7.20;;;0.90;;
4409;SDS011;2218;51.408;7.208;2024-01-15T09:02:08;0.80;;;0.80;;
4409;SDS011;2218;51.408;7.208;2024-01-15T09:04:35;0.70;;;0.60;;
4409;SDS011;2218;51.408;7.208;2024-01-15T09:07:02;0.93;;;0.67;;
4409;SDS011;2218;51.408;7.208;2024-01-15T09:09:29;1.10;;;0.60;;
4409;SDS011;2218;51.408;7.208;2024-01-15T09:11:56;1.20;;;0.70;;
4409;SDS011;2218;51.408;7.208;2024-01-15T09:14:23;0.83;;;0.57;;
4409;SDS011;2218;51.408;7.208;2024-01-15T09:16:53;2.03;;;0.53;;
4409;SDS011;2218;51.408;7.208;2024-01-15T09:19:21;2.97;;;0.60;;
4409;SDS011;2218;51.408;7.208;2024-01-15T09:21:48;0.70;;;0.60;;
4409;SDS011;2218;51.408;7.208;2024-01-15T09:24:15;2.00;;;0.70;;
4409;SDS011;2218;51.408;7.208;2024-01-15T09:26:42;0.70;;;0.60;;
4409;SDS011;2218;51.408;7.208;2024-01-15T09:29:10;0.90;;;0.60;;
4409;SDS011;2218;51.408;7.208;2024-01-15T09:31:37;0.80;;;0.60;;
4409;SDS011;2218;51.408;7.208;2024-01-15T09:34:05;1.33;;;0.80;;
4409;SDS011;2218;51.408;7.208;2024-01-15T09:36:32;2.30;;;0.70;;
4409;SDS011;2218;51.408;7.208;2024-01-15T09:38:59;0.70;;;0.50;;
4409;SDS011;2218;51.408;7.208;2024-01-15T09:41:26;1.57;;;0.60;;
4409;SDS011;2218;51.408;7.208;2024-01-15T09:43:53;2.30;;;0.50;;
4409;SDS011;2218;51.408;7.208;2024-01-15T09:46:20;1.77;;;0.60;;
4409;SDS011;2218;51.408;7.208;2024-01-15T09:48:47;0.70;;;0.60;;
4409;SDS011;2218;51.408;7.208;2024-01-15T09:51:15;1.00;;;0.60;;
4409;SDS011;2218;51.408;7.208;2024-01-15T09:53:43;0.70;;;0.63;;
4409;SDS011;2218;51.408;7.208;2024-01-15T09:56:13;0.70;;;0.60;;
4409;SDS011;2218;51.408;7.208;2024-01-15T09:58:41;0.80;;;0.70;;
4409;SDS011;2218;51.408;7.208;2024-01-15T10:01:08;0.60;;;0.53;;
4409;SDS011;2218;51.408;7.208;2024-01-15T10:03:37;1.17;;;0.57;;
4409;SDS011;2218;51.408;7.208;2024-01-15T10:06:07;0.90;;;0.60;;
4409;SDS011;2218;51.408;7.208;2024-01-15T10:08:38;0.60;;;0.50;;
4409;SDS011;2218;51.408;7.208;2024-01-15T10:11:05;0.70;;;0.60;;
4409;SDS011;2218;51.408;7.208;2024-01-15T10:13:32;0.80;;;0.70;;
4409;SDS011;2218;51.408;7.208;2024-01-15T10:16:00;0.90;;;0.50;;
4409;SDS011;2218;51.408;7.208;2024-01-15T10:18:28;0.70;;;0.50;;
4409;SDS011;2218;51.408;7.208;2024-01-15T10:20:56;0.70;;;0.50;;
4409;SDS011;2218;51.408;7.208;2024-01-15T10:23:23;0.70;;;0.60;;
4409;SDS011;2218;51.408;7.208;2024-01-15T10:25:52;0.70;;;0.60;;
4409;SDS011;2218;51.408;7.208;2024-01-15T10:28:19;0.60;;;0.50;;
4409;SDS011;2218;51.408;7.208;2024-01-15T10:30:47;2.20;;;0.90;;
4409;SDS011;2218;51.408;7.208;2024-01-15T10:33:21;2.40;;;0.50;;
4409;SDS011;2218;51.408;7.208;2024-01-15T10:35:50;1.43;;;0.60;;
4409;SDS011;2218;51.408;7.208;2024-01-15T10:38:21;0.90;;;0.60;;
4409;SDS011;2218;51.408;7.208;2024-01-15T10:40:52;2.10;;;0.57;;
4409;SDS011;2218;51.408;7.208;2024-01-15T10:43:20;0.70;;;0.60;;
4409;SDS011;2218;51.408;7.208;2024-01-15T10:45:48;1.67;;;0.60;;
4409;SDS011;2218;51.408;7.208;2024-01-15T10:48:17;0.80;;;0.70;;
4409;SDS011;2218;51.408;7.208;2024-01-15T10:50:45;0.80;;;0.50;;
4409;SDS011;2218;51.408;7.208;2024-01-15T10:53:15;0.90;;;0.50;;
4409;SDS011;2218;51.408;7.208;2024-01-15T10:55:43;1.20;;;0.60;;
4409;SDS011;2218;51.408;7.208;2024-01-15T10:58:15;0.70;;;0.57;;
4409;SDS011;2218;51.408;7.208;2024-01-15T11:00:44;2.60;;;0.70;;
4409;SDS011;2218;51.408;7.208;2024-01-15T11:03:12;1.27;;;0.50;;
4409;SDS011;2218;51.408;7.208;2024-01-15T11:05:41;0.70;;;0.50;;
4409;SDS011;2218;51.408;7.208;2024-01-15T11:08:09;2.07;;;0.50;;
4409;SDS011;2218;51.408;7.208;2024-01-15T11:10:37;0.70;;;0.50;;
4409;SDS011;2218;51.408;7.208;2024-01-15T11:13:08;0.67;;;0.50;;
4409;SDS011;2218;51.408;7.208;2024-01-15T11:18:29;1.30;;;0.70;;
4409;SDS011;2218;51.408;7.208;2024-01-15T11:23:52;0.60;;;0.50;;
4409;SDS011;2218;51.408;7.208;2024-01-15T11:26:30;0.90;;;0.53;;
4409;SDS011;2218;51.408;7.208;2024-01-15T11:29:02;0.60;;;0.40;;
4409;SDS011;2218;51.408;7.208;2024-01-15T11:37:23;0.70;;;0.50;;
4409;SDS011;2218;51.408;7.208;2024-01-15T11:39:53;1.43;;;0.50;;
4409;SDS011;2218;51.408;7.208;2024-01-15T11:42:20;0.70;;;0.60;;
4409;SDS011;2218;51.408;7.208;2024-01-15T11:44:48;0.90;;;0.50;;
4409;SDS011;2218;51.408;7.208;2024-01-15T11:47:21;1.37;;;0.50;;
4409;SDS011;2218;51.408;7.208;2024-01-15T11:50:19;0.60;;;0.50;;
4409;SDS011;2218;51.408;7.208;2024-01-15T11:52:50;0.80;;;0.50;;
4409;SDS011;2218;51.408;7.208;2024-01-15T11:55:27;0.70;;;0.50;;
4409;SDS011;2218;51.408;7.208;2024-01-15T11:58:01;0.70;;;0.57;;
4409;SDS011;2218;51.408;7.208;2024-01-15T12:00:32;1.20;;;0.50;;
4409;SDS011;2218;51.408;7.208;2024-01-15T12:03:01;0.60;;;0.47;;
4409;SDS011;2218;51.408;7.208;2024-01-15T12:05:30;0.70;;;0.60;;
4409;SDS011;2218;51.408;7.208;2024-01-15T12:07:57;0.70;;;0.60;;
4409;SDS011;2218;51.408;7.208;2024-01-15T12:10:24;0.70;;;0.50;;
4409;SDS011;2218;51.408;7.208;2024-01-15T12:12:53;0.70;;;0.50;;
4409;SDS011;2218;51.408;7.208;2024-01-15T12:15:25;0.70;;;0.40;;
4409;SDS011;2218;51.408;7.208;2024-01-15T12:17:55;0.80;;;0.50;;
4409;SDS011;2218;51.408;7.208;2024-01-15T12:20:25;0.77;;;0.50;;
4409;SDS011;2218;51.408;7.208;2024-01-15T12:22:53;0.70;;;0.53;;
4409;SDS011;2218;51.408;7.208;2024-01-15T12:25:21;0.70;;;0.50;;
4409;SDS011;2218;51.408;7.208;2024-01-15T12:27:48;0.60;;;0.47;;
4409;SDS011;2218;51.408;7.208;2024-01-15T12:30:16;0.70;;;0.50;;
4409;SDS011;2218;51.408;7.208;2024-01-15T12:32:44;1.30;;;0.43;;
4409;SDS011;2218;51.408;7.208;2024-01-15T12:35:12;0.60;;;0.40;;
4409;SDS011;2218;51.408;7.208;2024-01-15T12:37:42;1.07;;;0.50;;
4409;SDS011;2218;51.408;7.208;2024-01-15T12:40:18;1.33;;;0.50;;
4409;SDS011;2218;51.408;7.208;2024-01-15T12:42:47;0.70;;;0.50;;
4409;SDS011;2218;51.408;7.208;2024-01-15T12:45:14;0.70;;;0.50;;
4409;SDS011;2218;51.408;7.208;2024-01-15T12:47:42;0.60;;;0.50;;
4409;SDS011;2218;51.408;7.208;2024-01-15T12:50:11;0.70;;;0.50;;
4409;SDS011;2218;51.408;7.208;2024-01-15T12:52:41;0.60;;;0.40;;
4409;SDS011;2218;51.408;7.208;2024-01-15T12:55:10;0.70;;;0.40;;
4409;SDS011;2218;51.408;7.208;2024-01-15T12:57:38;0.70;;;0.50;;
4409;SDS011;2218;51.408;7.208;2024-01-15T13:00:06;0.70;;;0.50;;
4409;SDS011;2218;51.408;7.208;2024-01-15T13:02:37;0.70;;;0.50;;
4409;SDS011;2218;51.408;7.208;2024-01-15T13:05:05;0.60;;;0.40;;
4409;SDS011;2218;51.408;7.208;2024-01-15T13:07:36;0.80;;;0.50;;
4409;SDS011;2218;51.408;7.208;2024-01-15T13:10:04;0.60;;;0.50;;
4409;SDS011;2218;51.408;7.208;2024-01-15T13:12:34;2.10;;;0.50;;
4409;SDS011;2218;51.408;7.208;2024-01-15T13:15:01;0.70;;;0.50;;
4409;SDS011;2218;51.408;7.208;2024-01-15T13:17:29;1.17;;;0.50;;
4409;SDS011;2218;51.408;7.208;2024-01-15T13:19:56;1.53;;;0.40;;
4409;SDS011;2218;51.408;7.208;2024-01-15T13:22:23;0.70;;;0.50;;
4409;SDS011;2218;51.408;7.208;2024-01-15T13:24:54;0.70;;;0.50;;
4409;SDS011;2218;51.408;7.208;2024-01-15T13:27:22;1.17;;;0.50;;
4409;SDS011;2218;51.408;7.208;2024-01-15T13:29:50;0.70;;;0.50;;
4409;SDS011;2218;51.408;7.208;2024-01-15T13:32:20;0.97;;;0.50;;
4409;SDS011;2218;51.408;7.208;2024-01-15T13:34:52;0.60;;;0.40;;
4409;SDS011;2218;51.408;7.208;2024-01-15T13:37:18;4.70;;;0.50;;
4409;SDS011;2218;51.408;7.208;2024-01-15T13:39:45;3.57;;;0.50;;
4409;SDS011;2218;51.408;7.208;2024-01-15T13:42:13;0.67;;;0.40;;
4409;SDS011;2218;51.408;7.208;2024-01-15T13:44:42;0.60;;;0.50;;
4409;SDS011;2218;51.408;7.208;2024-01-15T13:47:09;0.60;;;0.40;;
4409;SDS011;2218;51.408;7.208;2024-01-15T13:49:36;0.80;;;0.60;;
4409;SDS011;2218;51.408;7.208;2024-01-15T13:52:03;0.70;;;0.60;;
4409;SDS011;2218;51.408;7.208;2024-01-15T13:54:30;1.00;;;0.50;;
4409;SDS011;2218;51.408;7.208;2024-01-15T13:56:58;0.70;;;0.50;;
4409;SDS011;2218;51.408;7.208;2024-01-15T13:59:25;0.80;;;0.50;;
4409;SDS011;2218;51.408;7.208;2024-01-15T14:01:53;0.60;;;0.50;;
4409;SDS011;2218;51.408;7.208;2024-01-15T14:04:20;0.60;;;0.43;;
4409;SDS011;2218;51.408;7.208;2024-01-15T14:06:47;0.60;;;0.40;;
4409;SDS011;2218;51.408;7.208;2024-01-15T14:09:15;0.70;;;0.50;;
4409;SDS011;2218;51.408;7.208;2024-01-15T14:11:42;2.23;;;0.40;;
4409;SDS011;2218;51.408;7.208;2024-01-15T14:14:08;0.70;;;0.47;;
4409;SDS011;2218;51.408;7.208;2024-01-15T14:16:35;0.60;;;0.50;;
4409;SDS011;2218;51.408;7.208;2024-01-15T14:19:04;1.00;;;0.50;;
4409;SDS011;2218;51.408;7.208;2024-01-15T14:21:34;0.70;;;0.50;;
4409;SDS011;2218;51.408;7.208;2024-01-15T14:24:01;0.80;;;0.50;;
4409;SDS011;2218;51.408;7.208;2024-01-15T14:26:28;0.77;;;0.57;;
4409;SDS011;2218;51.408;7.208;2024-01-15T14:28:55;0.70;;;0.50;;
4409;SDS011;2218;51.408;7.208;2024-01-15T14:31:24;0.70;;;0.60;;
4409;SDS011;2218;51.408;7.208;2024-01-15T14:33:52;0.63;;;0.50;;
4409;SDS011;2218;51.408;7.208;2024-01-15T14:36:21;1.00;;;0.60;;
4409;SDS011;2218;51.408;7.208;2024-01-15T14:38:48;0.70;;;0.60;;
4409;SDS011;2218;51.408;7.208;2024-01-15T14:41:15;1.27;;;0.50;;
4409;SDS011;2218;51.408;7.208;2024-01-15T14:43:42;0.90;;;0.50;;
4409;SDS011;2218;51.408;7.208;2024-01-15T14:46:10;0.70;;;0.50;;
4409;SDS011;2218;51.408;7.208;2024-01-15T14:48:37;0.60;;;0.40;;
4409;SDS011;2218;51.408;7.208;2024-01-15T14:51:05;0.80;;;0.50;;
4409;SDS011;2218;51.408;7.208;2024-01-15T14:53:33;1.20;;;0.53;;
4409;SDS011;2218;51.408;7.208;2024-01-15T14:56:01;0.80;;;0.60;;
4409;SDS011;2218;51.408;7.208;2024-01-15T14:58:29;0.83;;;0.60;;
4409;SDS011;2218;51.408;7.208;2024-01-15T15:00:56;0.60;;;0.40;;
4409;SDS011;2218;51.408;7.208;2024-01-15T15:03:24;1.10;;;0.50;;
4409;SDS011;2218;51.408;7.208;2024-01-15T15:05:51;0.60;;;0.50;;
4409;SDS011;2218;51.408;7.208;2024-01-15T15:08:18;0.60;;;0.40;;
4409;SDS011;2218;51.408;7.208;2024-01-15T15:10:48;0.80;;;0.60;;
4409;SDS011;2218;51.408;7.208;2024-01-15T15:13:15;1.20;;;0.60;;
4409;SDS011;2218;51.408;7.208;2024-01-15T15:15:42;0.97;;;0.50;;
4409;SDS011;2218;51.408;7.208;2024-01-15T15:18:09;0.60;;;0.40;;
4409;SDS011;2218;51.408;7.208;2024-01-15T15:20:36;0.60;;;0.40;;
4409;SDS011;2218;51.408;7.208;2024-01-15T15:23:03;0.70;;;0.50;;
4409;SDS011;2218;51.408;7.208;2024-01-15T15:25:33;0.70;;;0.50;;
4409;SDS011;2218;51.408;7.208;2024-01-15T15:28:01;0.70;;;0.50;;
4409;SDS011;2218;51.408;7.208;2024-01-15T15:30:30;0.70;;;0.60;;